Time;durP1;ratioP1;P1;durP2;ratioP2;P2;SDS_P1;SDS_P2;PMS_P1;PMS_P2;Temp;Humidity;BMP_temperature;BMP_pressure;BME280_temperature;BME280_humidity;BME280_pressure;Samples;Min_cycle;Max_cycle;Signal;HPM_P1;HPM_P2
2021/05/18 00:02:43;;;;;;;1999.90;999.90;;;;;;;11.39;74.83;100158.16;15872327;28;20071;-64
2021/05/18 00:18:05;;;;;;;1999.90;999.90;;;;;;;11.18;75.04;100166.69;15870326;28;20480;-64
2021/05/18 00:25:39;;;;;;;1999.90;999.90;;;;;;;11.23;74.92;100162.84;15871259;28;20173;-64
2021/05/18 00:33:13;;;;;;;1999.90;999.90;;;;;;;11.15;75.17;100161.81;15869697;28;20077;-64
2021/05/18 00:40:47;;;;;;;1999.90;999.90;;;;;;;11.09;75.45;100168.78;15870003;28;20407;-63
2021/05/18 00:48:21;;;;;;;1999.90;999.90;;;;;;;10.97;75.32;100168.78;15870553;28;20044;-64
2021/05/18 00:55:57;;;;;;;1999.90;999.90;;;;;;;10.91;75.40;100168.19;15870875;28;20503;-64
2021/05/18 01:03:33;;;;;;;1999.90;999.90;;;;;;;10.85;75.78;100177.16;15869654;28;20040;-64
2021/05/18 01:11:08;;;;;;;1999.90;999.90;;;;;;;10.99;75.76;100186.00;15869008;28;20047;-64
2021/05/18 01:18:43;;;;;;;1999.90;999.90;;;;;;;10.93;75.46;100187.38;15866674;28;20484;-64
2021/05/18 01:26:17;;;;;;;1999.90;999.90;;;;;;;10.79;75.09;100182.16;15849729;28;20054;-65
2021/05/18 01:33:49;;;;;;;1999.90;999.90;;;;;;;10.77;75.78;100208.78;15865976;28;20042;-65
2021/05/18 01:49:16;;;;;;;1999.90;999.90;;;;;;;10.62;74.98;100224.19;15865077;28;20136;-65
2021/05/18 01:57:15;;;;;;;1999.90;999.90;;;;;;;10.55;75.57;100221.19;15866237;28;20043;-65
2021/05/18 02:04:50;;;;;;;1999.90;999.90;;;;;;;10.40;74.81;100242.97;15865260;28;20407;-65
2021/05/18 02:12:27;;;;;;;1999.90;999.90;;;;;;;10.37;75.09;100251.22;15846962;28;20061;-65
2021/05/18 02:20:12;;;;;;;1999.90;999.90;;;;;;;10.34;74.98;100260.28;15864101;28;20039;-63
2021/05/18 02:27:56;;;;;;;;;;;;;;;10.34;75.79;100274.22;15863846;28;20071;-65
2021/05/18 02:35:28;;;;;;;1999.90;999.90;;;;;;;10.22;75.31;100277.78;15863790;28;20030;-65
2021/05/18 02:43:02;;;;;;;1999.90;999.90;;;;;;;10.15;75.00;100273.88;15870392;28;20039;-65
2021/05/18 02:50:35;;;;;;;1999.90;999.90;;;;;;;10.11;75.13;100288.50;15875762;28;20035;-65
2021/05/18 02:58:09;;;;;;;1999.90;999.90;;;;;;;10.05;75.67;100298.19;15877932;28;20067;-64
2021/05/18 03:05:40;;;;;;;1999.90;999.90;;;;;;;10.13;75.27;100296.50;15877627;28;20526;-64
2021/05/18 03:13:15;;;;;;;1999.90;999.90;;;;;;;10.25;75.78;100306.94;15858725;28;20054;-67
2021/05/18 03:20:46;;;;;;;1999.90;999.90;;;;;;;10.40;76.20;100307.13;15876834;28;20456;-65
2021/05/18 03:28:20;;;;;;;1999.90;999.90;;;;;;;10.59;76.48;100315.00;15876245;28;20071;-64
2021/05/18 03:35:52;;;;;;;;;;;;;;;10.85;75.41;100317.53;15876463;27;20043;-66
2021/05/18 03:43:41;;;;;;;1999.90;999.90;;;;;;;10.96;75.27;100317.91;15875826;28;19927;-65
2021/05/18 04:02:40;;;;;;;1999.90;999.90;;;;;;;11.35;75.82;100347.16;15873373;28;20573;-64
2021/05/18 04:22:57;;;;;;;1999.90;999.90;;;;;;;11.95;76.27;100364.34;15871158;28;20051;-64
2021/05/18 05:02:34;;;;;;;1999.90;999.90;;;;;;;13.17;75.83;100400.38;15870613;28;20043;-64
2021/05/18 05:10:01;;;;;;;1999.90;999.90;;;;;;;13.37;75.22;100406.94;15868918;28;20064;-64
2021/05/18 05:17:33;;;;;;;1999.90;999.90;;;;;;;13.57;75.54;100419.91;15869944;28;20047;-64
2021/05/18 05:25:06;;;;;;;1999.90;999.90;;;;;;;13.91;75.69;100428.78;15868019;28;20072;-64
2021/05/18 05:32:38;;;;;;;1999.90;999.90;;;;;;;14.26;76.08;100424.00;15867809;28;20036;-64
2021/05/18 05:40:11;;;;;;;1999.90;999.90;;;;;;;14.11;77.01;100436.91;15850007;28;20580;-64
2021/05/18 05:47:44;;;;;;;1999.90;999.90;;;;;;;14.01;77.09;100433.84;15867965;28;20062;-62
2021/05/18 05:55:15;;;;;;;1999.90;999.90;;;;;;;14.27;76.83;100452.88;15866543;28;20108;-62
2021/05/18 06:02:48;;;;;;;1999.90;999.90;;;;;;;14.75;74.86;100459.25;15866109;28;20044;-64
2021/05/18 06:10:23;;;;;;;1999.90;999.90;;;;;;;14.84;74.28;100471.91;15867523;28;20079;-63
2021/05/18 06:49:16;;;;;;;1999.90;999.90;;;;;;;14.29;75.81;100503.88;15866024;28;20485;-64
2021/05/18 06:56:52;;;;;;;1999.90;999.90;;;;;;;14.56;74.84;100519.78;15864039;28;20047;-62
2021/05/18 07:04:25;;;;;;;1999.90;999.90;;;;;;;15.27;73.08;100529.03;15865833;28;20054;-62
2021/05/18 07:11:56;;;;;;;1999.90;999.90;;;;;;;15.30;72.67;100539.50;15865224;28;20098;-63
2021/05/18 07:19:29;;;;;;;1999.90;999.90;;;;;;;14.84;74.13;100546.94;15864729;28;20050;-63
2021/05/18 07:27:02;;;;;;;1999.90;999.90;;;;;;;14.15;75.72;100566.03;15865908;28;20070;-63
2021/05/18 07:34:35;;;;;;;1999.90;999.90;;;;;;;13.61;76.59;100569.38;15875145;28;20039;-63
2021/05/18 07:42:06;;;;;;;1999.90;999.90;;;;;;;13.56;74.97;100586.47;15876383;28;20048;-63
2021/05/18 07:49:41;;;;;;;1999.90;999.90;;;;;;;13.43;75.84;100585.69;15877512;28;20086;-63
2021/05/18 08:05:43;;;;;;;1999.90;999.90;;;;;;;13.89;73.33;100605.84;15873670;28;20404;-65
2021/05/18 08:13:21;;;;;;;1999.90;999.90;;;;;;;14.38;71.88;100602.72;15874258;28;20047;-63
2021/05/18 10:35:43;;;;;;;1999.90;999.90;;;;;;;21.25;46.18;100650.91;15865107;28;20142;-64
2021/05/18 10:43:28;;;;;;;1999.90;999.90;;;;;;;22.15;44.98;100651.50;15867857;28;20048;-64
2021/05/18 10:51:00;;;;;;;1999.90;999.90;;;;;;;20.81;45.63;100659.03;15866391;28;20050;-64
2021/05/18 10:58:32;;;;;;;1999.90;999.90;;;;;;;20.13;47.69;100667.41;15867386;28;20058;-65
2021/05/18 11:06:04;;;;;;;1999.90;999.90;;;;;;;22.11;46.13;100662.88;15875691;28;20039;-65
2021/05/18 11:13:36;;;;;;;1999.90;999.90;;;;;;;20.85;47.76;100652.19;15876969;28;20415;-65
2021/05/18 11:21:11;;;;;;;1999.90;999.90;;;;;;;23.32;42.57;100662.00;15877656;28;20048;-64
2021/05/18 11:28:45;;;;;;;1999.90;999.90;;;;;;;22.45;46.14;100648.88;15877400;28;20044;-64
2021/05/18 11:36:18;;;;;;;1999.90;999.90;;;;;;;20.96;45.58;100647.31;15858186;28;20036;-65
2021/05/18 11:43:54;;;;;;;1999.90;999.90;;;;;;;19.89;49.18;100640.59;15874914;28;20051;-64
2021/05/18 11:51:26;;;;;;;1999.90;999.90;;;;;;;18.97;51.42;100638.00;15875317;28;20082;-65
2021/05/18 11:59:05;;;;;;;1999.90;999.90;;;;;;;18.94;50.29;100647.25;15856778;28;20071;-65
2021/05/18 12:06:40;;;;;;;1999.90;999.90;;;;;;;17.88;51.87;100657.03;15872886;28;20036;-64
2021/05/18 12:14:12;;;;;;;1999.90;999.90;;;;;;;17.47;51.17;100643.97;15854282;28;20504;-64
2021/05/18 12:21:46;;;;;;;1999.90;999.90;;;;;;;17.87;51.60;100660.25;15872223;28;20035;-65
2021/05/18 12:29:28;;;;;;;;;;;;;;;18.61;49.83;100656.63;15874051;28;20078;-64
2021/05/18 12:37:00;;;;;;;1999.90;999.90;;;;;;;19.29;47.69;100658.84;15872777;28;19931;-65
2021/05/18 12:44:34;;;;;;;1999.90;999.90;;;;;;;20.46;48.87;100666.28;15871153;28;20047;-65
2021/05/18 12:52:10;;;;;;;1999.90;999.90;;;;;;;20.60;48.51;100668.34;15872353;28;20037;-64
2021/05/18 12:59:57;;;;;;;1999.90;999.90;;;;;;;21.41;47.17;100675.25;15870544;28;20047;-65
2021/05/18 13:07:29;;;;;;;1999.90;999.90;;;;;;;23.00;42.16;100675.72;15871172;28;20051;-65
2021/05/18 13:15:04;;;;;;;1999.90;999.90;;;;;;;22.50;42.95;100663.88;15869172;28;20047;-65
2021/05/18 13:22:38;;;;;;;1999.90;999.90;;;;;;;21.78;42.02;100666.22;15868677;28;20043;-65
2021/05/18 13:30:12;;;;;;;1999.90;999.90;;;;;;;20.97;45.00;100662.28;15867943;28;20130;-64
2021/05/18 13:37:44;;;;;;;1999.90;999.90;;;;;;;20.57;46.58;100671.97;15868744;28;20453;-65
2021/05/18 13:45:16;;;;;;;1999.90;999.90;;;;;;;21.65;44.56;100665.06;15869470;28;20039;-65
2021/05/18 13:52:48;;;;;;;1999.90;999.90;;;;;;;20.14;46.07;100666.19;15867624;28;20047;-65
2021/05/18 14:00:21;;;;;;;1999.90;999.90;;;;;;;19.64;46.01;100670.81;15850057;28;20520;-65
2021/05/18 14:08:23;;;;;;;1999.90;999.90;;;;;;;19.53;44.94;100676.38;15870404;27;20100;-63
2021/05/18 14:15:56;;;;;;;1999.90;999.90;;;;;;;19.29;46.53;100660.88;15864395;28;20565;-63
2021/05/18 14:23:32;;;;;;;1999.90;999.90;;;;;;;18.38;45.19;100682.22;15867481;28;20461;-63
2021/05/18 14:31:09;;;;;;;1999.90;999.90;;;;;;;19.04;45.38;100663.50;15848551;28;20039;-63
2021/05/18 14:38:44;;;;;;;1999.90;999.90;;;;;;;19.63;45.41;100661.50;15863907;28;20627;-64
2021/05/18 14:46:20;;;;;;;1999.90;999.90;;;;;;;19.80;44.65;100666.47;15861759;28;20047;-63
2021/05/18 14:54:05;;;;;;;1999.90;999.90;;;;;;;19.72;44.10;100670.44;15864435;28;20122;-64
2021/05/18 15:01:38;;;;;;;1999.90;999.90;;;;;;;18.28;46.39;100674.44;15866154;28;20051;-64
2021/05/18 15:09:09;;;;;;;1999.90;999.90;;;;;;;19.17;44.79;100667.63;15865418;28;20104;-63
2021/05/18 15:16:42;;;;;;;1999.90;999.90;;;;;;;19.77;44.27;100672.88;15853322;28;20464;-63
2021/05/18 15:24:14;;;;;;;1999.90;999.90;;;;;;;19.34;42.52;100671.81;15853774;28;20050;-64
2021/05/18 15:31:46;;;;;;;1999.90;999.90;;;;;;;19.42;41.60;100669.84;15835155;28;20044;-62
2021/05/18 15:39:18;;;;;;;1999.90;999.90;;;;;;;19.88;42.30;100673.75;15790539;28;20052;-63
2021/05/18 15:46:50;;;;;;;1999.90;999.90;;;;;;;19.76;44.46;100681.78;15791135;28;20075;-64
2021/05/18 15:54:22;;;;;;;1999.90;999.90;;;;;;;19.53;43.09;100673.53;15804033;28;20107;-64
2021/05/18 16:01:55;;;;;;;1999.90;999.90;;;;;;;19.11;42.96;100669.22;15829346;28;20039;-63
2021/05/18 16:09:27;;;;;;;1999.90;999.90;;;;;;;19.00;43.27;100682.47;15874496;28;20051;-64
2021/05/18 16:17:00;;;;;;;1999.90;999.90;;;;;;;19.20;41.69;100672.53;15872849;28;20082;-64
2021/05/18 16:24:33;;;;;;;1999.90;999.90;;;;;;;18.83;43.74;100672.59;15873095;27;20055;-64
2021/05/18 16:32:06;;;;;;;1999.90;999.90;;;;;;;18.69;43.69;100678.94;15871284;28;20096;-64
2021/05/18 16:39:37;;;;;;;1999.90;999.90;;;;;;;18.70;44.58;100682.59;15873572;28;20070;-64
2021/05/18 16:47:10;;;;;;;1999.90;999.90;;;;;;;18.30;44.43;100689.00;15780265;22;20497;-63
2021/05/18 16:54:44;;;;;;;1999.90;999.90;;;;;;;18.13;47.28;100694.06;15743381;28;20127;-62
2021/05/18 17:02:17;;;;;;;1999.90;999.90;;;;;;;17.89;47.30;100695.34;15763983;28;20074;-62
2021/05/18 17:09:57;;;;;;;1999.90;999.90;;;;;;;17.87;47.57;100708.25;15806824;28;20044;-62
2021/05/18 17:17:30;;;;;;;1999.90;999.90;;;;;;;17.72;48.44;100697.97;15788585;28;20324;-63
2021/05/18 17:25:02;;;;;;;1999.90;999.90;;;;;;;17.73;50.23;100700.41;15789137;28;20096;-63
2021/05/18 17:32:34;;;;;;;1999.90;999.90;;;;;;;17.82;49.11;100694.44;15794220;28;20519;-61
2021/05/18 17:40:08;;;;;;;1999.90;999.90;;;;;;;17.69;49.11;100696.69;15729718;28;20048;-63
2021/05/18 17:47:42;;;;;;;1999.90;999.90;;;;;;;17.59;51.32;100702.97;15740926;28;20052;-63
2021/05/18 17:55:16;;;;;;;1999.90;999.90;;;;;;;17.46;51.47;100705.22;15754151;28;20067;-63
2021/05/18 18:02:49;;;;;;;1999.90;999.90;;;;;;;17.37;52.45;100710.31;15784182;28;20405;-63
2021/05/18 18:10:20;;;;;;;1999.90;999.90;;;;;;;17.23;52.97;100713.72;15802969;28;20500;-63
2021/05/18 18:17:53;;;;;;;1999.90;999.90;;;;;;;17.13;53.18;100707.91;15804050;28;20132;-62
2021/05/18 18:25:24;;;;;;;1999.90;999.90;;;;;;;16.83;54.69;100704.97;15765674;28;20083;-63
2021/05/18 18:32:57;;;;;;;1999.90;999.90;;;;;;;16.46;56.35;100716.72;15773931;28;20079;-62
2021/05/18 18:40:29;;;;;;;1999.90;999.90;;;;;;;16.19;57.11;100700.94;15761905;28;20048;-63
2021/05/18 18:48:03;;;;;;;1999.90;999.90;;;;;;;15.91;58.22;100715.22;15785959;28;20048;-62
2021/05/18 18:55:38;;;;;;;1999.90;999.90;;;;;;;15.55;59.70;100714.41;15732585;28;20136;-62
2021/05/18 19:03:13;;;;;;;1999.90;999.90;;;;;;;15.29;59.96;100717.81;15741863;28;20048;-62
2021/05/18 19:11:04;;;;;;;1999.90;999.90;;;;;;;14.96;61.49;100712.56;15723314;28;20033;-63
2021/05/18 19:18:37;;;;;;;1999.90;999.90;;;;;;;14.78;62.90;100737.38;15795721;28;20071;-64
2021/05/18 19:26:10;;;;;;;1999.90;999.90;;;;;;;14.54;63.59;100732.75;15806072;28;20063;-64
2021/05/18 19:33:48;;;;;;;1999.90;999.90;;;;;;;14.32;63.32;100752.94;15782088;28;20048;-65
2021/05/18 19:41:25;;;;;;;1999.90;999.90;;;;;;;14.10;63.86;100746.72;15791895;28;20322;-64
2021/05/18 19:49:07;;;;;;;1999.90;999.90;;;;;;;13.89;65.14;100750.88;15819533;28;20044;-63
2021/05/18 19:56:44;;;;;;;1999.90;999.90;;;;;;;13.68;66.09;100754.66;15820334;28;20373;-63
2021/05/18 20:20:14;;;;;;;1999.90;999.90;;;;;;;13.16;67.62;100762.94;15810596;28;20090;-64
2021/05/18 20:27:47;;;;;;;1999.90;999.90;;;;;;;13.03;67.72;100772.50;15800191;28;20108;-64
2021/05/18 20:35:31;;;;;;;1999.90;999.90;;;;;;;12.91;67.85;100765.69;15786375;28;20058;-65
2021/05/18 20:43:02;;;;;;;1999.90;999.90;;;;;;;12.64;68.54;100772.78;15749270;28;20093;-63
2021/05/18 20:50:35;;;;;;;1999.90;999.90;;;;;;;12.56;68.98;100782.06;15745500;28;20093;-61
2021/05/18 20:58:07;;;;;;;1999.90;999.90;;;;;;;12.42;69.12;100787.97;15748540;28;20074;-64
2021/05/18 21:05:39;;;;;;;1999.90;999.90;;;;;;;12.34;69.31;100786.06;15745849;28;20043;-64
2021/05/18 21:13:22;;;;;;;1999.90;999.90;;;;;;;12.16;69.84;100795.78;15787105;28;20269;-59
2021/05/18 21:20:55;;;;;;;1999.90;999.90;;;;;;;12.07;69.74;100793.03;15806648;28;20058;-64
2021/05/18 21:28:29;;;;;;;1999.90;999.90;;;;;;;11.88;69.90;100786.28;15769400;28;20075;-64
2021/05/18 21:36:05;;;;;;;1999.90;999.90;;;;;;;11.72;70.55;100788.84;15766097;28;20052;-63
2021/05/18 21:43:39;;;;;;;1999.90;999.90;;;;;;;11.59;70.70;100796.31;15747444;28;20094;-64
2021/05/18 21:51:16;;;;;;;1999.90;999.90;;;;;;;11.51;70.88;100794.41;15742803;28;20048;-64
2021/05/18 21:58:51;;;;;;;1999.90;999.90;;;;;;;11.40;70.93;100796.75;15772044;28;20044;-64
2021/05/18 22:06:24;;;;;;;1999.90;999.90;;;;;;;11.25;71.38;100806.53;15810262;28;20040;-65
2021/05/18 22:14:02;;;;;;;1999.90;999.90;;;;;;;11.16;71.28;100808.53;15811587;28;20153;-63
2021/05/18 22:29:24;;;;;;;1999.90;999.90;;;;;;;11.04;71.55;100802.00;15798332;28;20460;-64
2021/05/18 22:36:57;;;;;;;1999.90;999.90;;;;;;;11.03;71.50;100792.81;15817050;28;20062;-64
2021/05/18 22:44:28;;;;;;;1999.90;999.90;;;;;;;11.01;71.25;100791.50;15828046;22;20052;-64
2021/05/18 22:52:02;;;;;;;1999.90;999.90;;;;;;;10.83;71.30;100785.97;15812613;28;20151;-63
2021/05/18 22:59:34;;;;;;;1999.90;999.90;;;;;;;10.78;70.71;100793.72;15861830;28;20047;-63
2021/05/18 23:07:06;;;;;;;1999.90;999.90;;;;;;;10.62;71.94;100790.63;15877287;28;20567;-63
2021/05/18 23:14:40;;;;;;;1999.90;999.90;;;;;;;10.70;72.55;100776.66;15875012;28;20176;-63
2021/05/18 23:22:12;;;;;;;;;;;;;;;10.94;72.48;100787.28;15875953;28;20039;-63
2021/05/18 23:29:44;;;;;;;1999.90;999.90;;;;;;;10.78;72.20;100782.56;15876739;28;19923;-63
2021/05/18 23:37:16;;;;;;;1999.90;999.90;;;;;;;10.96;72.49;100790.53;15875836;28;20075;-62
2021/05/18 23:44:48;;;;;;;1999.90;999.90;;;;;;;10.78;72.86;100788.13;15874677;28;20570;-62
2021/05/18 23:52:20;;;;;;;1999.90;999.90;;;;;;;10.72;72.45;100783.88;15867492;28;20100;-62
2021/05/18 23:59:51;;;;;;;1999.90;999.90;;;;;;;10.53;71.95;100787.06;15828131;28;20127;-63
